Time;durP1;ratioP1;P1;durP2;ratioP2;P2;SDS_P1;SDS_P2;PMS_P1;PMS_P2;Temp;Humidity;BMP_temperature;BMP_pressure;BME280_temperature;BME280_humidity;BME280_pressure;Samples;Min_cycle;Max_cycle;Signal;HPM_P1;HPM_P2
2022/05/30 00:01:15;;;;;;;14.50;7.32;;;8.60;99.90;;;;;;5040944;28;21396;-67
2022/05/30 00:03:43;;;;;;;16.77;7.88;;;8.60;99.90;;;;;;5024165;28;20073;-67
2022/05/30 00:06:13;;;;;;;11.80;7.43;;;8.60;99.90;;;;;;5027327;28;20476;-67
2022/05/30 00:08:42;;;;;;;11.82;6.97;;;8.60;99.90;;;;;;5027618;28;20045;-66
2022/05/30 00:11:11;;;;;;;13.00;7.03;;;8.60;99.90;;;;;;5028804;28;20518;-66
2022/05/30 00:13:39;;;;;;;17.08;7.25;;;8.60;99.90;;;;;;5031155;28;20037;-67
2022/05/30 00:16:13;;;;;;;13.82;7.50;;;8.60;99.90;;;;;;5031249;28;20119;-67
2022/05/30 00:18:41;;;;;;;10.88;6.95;;;8.50;99.90;;;;;;5031331;28;20053;-68
2022/05/30 00:21:09;;;;;;;12.25;6.72;;;8.50;99.90;;;;;;5031000;28;20423;-67
2022/05/30 00:23:36;;;;;;;12.32;6.75;;;8.50;99.90;;;;;;5030804;28;20481;-67
2022/05/30 00:26:08;;;;;;;9.65;6.38;;;8.40;99.90;;;;;;5031478;28;20040;-67
2022/05/30 00:28:36;;;;;;;12.25;6.53;;;8.40;99.90;;;;;;5031126;28;20049;-67
2022/05/30 00:31:07;;;;;;;13.73;7.65;;;8.40;99.90;;;;;;5030394;28;20052;-67
2022/05/30 00:33:35;;;;;;;13.35;7.15;;;8.30;99.90;;;;;;5009712;28;20053;-66
2022/05/30 00:36:03;;;;;;;11.18;7.22;;;8.30;99.90;;;;;;5020909;28;20045;-66
2022/05/30 00:38:30;;;;;;;11.88;6.63;;;8.30;99.90;;;;;;5023224;28;20050;-67
2022/05/30 00:40:58;;;;;;;11.27;6.70;;;8.20;99.90;;;;;;5008814;28;20195;-66
2022/05/30 00:43:35;;;;;;;11.02;6.55;;;8.20;99.90;;;;;;5025350;28;20045;-67
2022/05/30 00:46:12;;;;;;;9.68;6.38;;;8.20;99.90;;;;;;5033800;28;20068;-68
2022/05/30 00:48:44;;;;;;;9.82;6.45;;;8.20;99.90;;;;;;5039850;28;20049;-67
2022/05/30 00:51:15;;;;;;;11.40;6.72;;;8.10;99.90;;;;;;5026833;28;20530;-67
2022/05/30 00:53:44;;;;;;;9.50;6.23;;;8.10;99.90;;;;;;5047802;28;20041;-67
2022/05/30 00:56:14;;;;;;;10.40;7.07;;;8.10;99.90;;;;;;5049316;28;20362;-67
2022/05/30 00:58:46;;;;;;;9.90;6.30;;;8.10;99.90;;;;;;5031169;28;20040;-67
2022/05/30 01:01:15;;;;;;;11.88;7.45;;;8.10;99.90;;;;;;5036164;28;20124;-67
2022/05/30 01:06:38;;;;;;;9.32;6.60;;;8.00;99.90;;;;;;5028890;28;20054;-66
2022/05/30 01:09:09;;;;;;;9.30;6.20;;;8.10;99.90;;;;;;5022891;28;20061;-66
2022/05/30 01:11:59;;;;;;;10.80;6.47;;;8.00;99.90;;;;;;5012428;28;20045;-66
2022/05/30 01:14:35;;;;;;;10.70;6.68;;;8.00;99.90;;;;;;5041090;28;20385;-67
2022/05/30 01:17:06;;;;;;;11.20;6.60;;;8.00;99.90;;;;;;5029490;28;20107;-67
2022/05/30 01:19:53;;;;;;;9.10;6.28;;;8.00;99.90;;;;;;5030155;28;20412;-68
2022/05/30 01:22:55;;;;;;;9.88;6.03;;;7.90;99.90;;;;;;5028983;28;20128;-66
2022/05/30 01:25:31;;;;;;;12.43;6.43;;;7.80;99.90;;;;;;5019519;28;20100;-67
2022/05/30 01:28:42;;;;;;;10.63;6.60;;;7.80;99.90;;;;;;5030270;28;20438;-67
2022/05/30 01:31:12;;;;;;;8.93;5.35;;;7.80;99.90;;;;;;5029584;28;20134;-67
2022/05/30 01:33:40;;;;;;;10.73;5.50;;;7.80;99.90;;;;;;5029830;28;20059;-67
2022/05/30 01:36:08;;;;;;;10.05;6.25;;;7.70;99.90;;;;;;5029796;28;20384;-67
2022/05/30 01:38:36;;;;;;;8.32;4.72;;;7.70;99.90;;;;;;5026270;28;20103;-68
2022/05/30 01:41:05;;;;;;;8.85;5.40;;;7.70;99.90;;;;;;5025164;28;20540;-67
2022/05/30 01:43:33;;;;;;;7.70;5.10;;;7.70;99.90;;;;;;5040423;28;20053;-67
2022/05/30 01:46:08;;;;;;;8.10;5.80;;;7.70;99.90;;;;;;5025789;28;20041;-66
2022/05/30 01:48:41;;;;;;;9.43;5.78;;;7.60;99.90;;;;;;5028859;28;20468;-67
2022/05/30 01:51:09;;;;;;;9.93;5.45;;;7.60;99.90;;;;;;5036731;28;20049;-67
2022/05/30 01:53:36;;;;;;;9.13;5.63;;;7.50;99.90;;;;;;5034870;28;20118;-67
2022/05/30 01:56:27;;;;;;;7.03;5.20;;;7.50;99.90;;;;;;5042600;28;20072;-67
2022/05/30 01:58:58;;;;;;;8.25;4.80;;;7.40;99.90;;;;;;5014392;28;20215;-67
2022/05/30 02:01:40;;;;;;;8.32;5.28;;;7.40;99.90;;;;;;5026049;28;20508;-67
2022/05/30 02:04:07;;;;;;;7.85;5.38;;;7.40;99.90;;;;;;5010355;28;20041;-67
2022/05/30 02:06:35;;;;;;;11.85;5.40;;;7.40;99.90;;;;;;5026787;28;20124;-67
2022/05/30 02:09:04;;;;;;;8.07;5.20;;;7.40;99.90;;;;;;5008120;28;20068;-67
2022/05/30 02:11:33;;;;;;;9.73;5.82;;;7.30;99.90;;;;;;5017152;28;20045;-67
2022/05/30 02:14:25;;;;;;;7.72;5.28;;;7.30;99.90;;;;;;5025440;28;20064;-67
2022/05/30 02:17:01;;;;;;;12.63;5.80;;;7.20;99.90;;;;;;5037976;28;20107;-67
2022/05/30 02:19:41;;;;;;;9.60;5.70;;;7.20;99.90;;;;;;5033847;28;20052;-68
2022/05/30 02:22:18;;;;;;;9.20;5.55;;;7.20;99.90;;;;;;5019672;28;20544;-67
2022/05/30 02:24:48;;;;;;;8.73;5.57;;;7.20;99.90;;;;;;5035423;28;20052;-67
2022/05/30 02:27:17;;;;;;;9.77;5.45;;;7.20;99.90;;;;;;5019506;28;20088;-67
2022/05/30 02:29:44;;;;;;;8.48;5.30;;;7.10;99.90;;;;;;5033878;28;20467;-66
2022/05/30 02:32:16;;;;;;;9.07;5.25;;;7.10;99.90;;;;;;5018179;28;20215;-67
2022/05/30 02:37:42;;;;;;;6.85;4.95;;;7.00;99.90;;;;;;5058482;28;20068;-67
2022/05/30 02:40:48;;;;;;;10.85;5.82;;;7.00;99.90;;;;;;4968641;28;20493;-66
2022/05/30 02:43:33;;;;;;;9.27;6.05;;;6.90;99.90;;;;;;4978852;28;20518;-66
2022/05/30 02:46:01;;;;;;;9.88;6.28;;;6.90;99.90;;;;;;4949137;28;20063;-67
2022/05/30 02:48:30;;;;;;;8.45;5.68;;;6.90;99.90;;;;;;4950464;28;20602;-67
2022/05/30 02:50:58;;;;;;;9.63;6.70;;;6.90;99.90;;;;;;4979436;28;20097;-67
2022/05/30 02:53:27;;;;;;;9.95;6.78;;;6.80;99.90;;;;;;4960276;28;20145;-66
2022/05/30 02:56:14;;;;;;;8.45;5.78;;;6.80;99.90;;;;;;4967796;28;20118;-67
2022/05/30 02:58:43;;;;;;;9.45;6.25;;;6.90;99.90;;;;;;4959392;28;20038;-66
2022/05/30 03:01:11;;;;;;;9.38;6.03;;;6.90;99.90;;;;;;4949752;28;20070;-66
2022/05/30 03:03:39;;;;;;;11.98;8.57;;;6.90;99.90;;;;;;4966845;28;20047;-66
2022/05/30 03:06:07;;;;;;;11.45;7.38;;;6.80;99.90;;;;;;4967090;28;20054;-66
2022/05/30 03:08:35;;;;;;;11.13;7.07;;;6.80;99.90;;;;;;4963333;28;20055;-66
2022/05/30 03:11:12;;;;;;;13.00;8.02;;;6.80;99.90;;;;;;4983824;28;20057;-67
2022/05/30 03:13:39;;;;;;;14.40;8.93;;;6.80;99.90;;;;;;5028641;28;20128;-67
2022/05/30 03:16:07;;;;;;;14.10;7.70;;;6.80;99.90;;;;;;5024259;28;20072;-66
2022/05/30 03:18:39;;;;;;;12.23;8.35;;;6.90;99.90;;;;;;5025456;28;20075;-66
2022/05/30 03:21:07;;;;;;;8.77;6.25;;;6.90;99.90;;;;;;5026994;28;20463;-67
2022/05/30 03:23:34;;;;;;;11.20;6.88;;;6.90;99.90;;;;;;5026890;28;20045;-67
2022/05/30 03:26:10;;;;;;;10.95;7.95;;;6.90;99.90;;;;;;5027815;28;20068;-66
2022/05/30 03:28:38;;;;;;;11.27;7.55;;;6.90;99.90;;;;;;5028294;28;20064;-66
2022/05/30 03:31:07;;;;;;;12.73;8.07;;;7.00;99.90;;;;;;5026999;28;20041;-66
2022/05/30 03:33:37;;;;;;;10.35;6.78;;;7.00;99.90;;;;;;5027593;28;20567;-66
2022/05/30 03:36:13;;;;;;;8.63;5.95;;;7.00;99.90;;;;;;5028586;28;20469;-67
2022/05/30 03:39:02;;;;;;;9.27;5.45;;;6.90;99.90;;;;;;5024351;28;20061;-67
2022/05/30 03:41:47;;;;;;;10.20;5.68;;;7.00;99.90;;;;;;5022300;28;20071;-67
2022/05/30 03:44:20;;;;;;;8.40;5.70;;;7.00;99.90;;;;;;5028948;28;20045;-67
2022/05/30 03:46:47;;;;;;;15.32;7.18;;;7.00;99.90;;;;;;5029238;28;20055;-66
2022/05/30 03:49:15;;;;;;;11.25;8.07;;;7.10;99.90;;;;;;5038547;28;20835;-67
2022/05/30 03:51:42;;;;;;;11.23;6.75;;;7.10;99.90;;;;;;5047742;28;20071;-68
2022/05/30 03:54:10;;;;;;;11.98;5.90;;;7.20;99.90;;;;;;5048742;28;20479;-67
2022/05/30 03:56:37;;;;;;;11.30;5.68;;;7.20;99.90;;;;;;5049578;28;20037;-66
2022/05/30 03:59:07;;;;;;;8.80;5.97;;;7.20;99.90;;;;;;5034424;28;20049;-67
2022/05/30 04:01:34;;;;;;;9.18;5.28;;;7.10;99.90;;;;;;5034312;28;20363;-68
2022/05/30 04:04:01;;;;;;;7.30;5.10;;;7.20;99.90;;;;;;5017324;28;20057;-68
2022/05/30 04:06:29;;;;;;;9.55;6.43;;;7.20;99.90;;;;;;5024713;28;20058;-66
2022/05/30 04:08:57;;;;;;;9.38;6.40;;;7.20;99.90;;;;;;5014200;28;20081;-67
2022/05/30 04:11:43;;;;;;;10.13;5.60;;;7.30;99.90;;;;;;5039163;28;20176;-67
2022/05/30 04:14:36;;;;;;;8.70;6.45;;;7.30;99.90;;;;;;5044960;28;20083;-67
2022/05/30 04:17:07;;;;;;;12.18;7.20;;;7.40;99.90;;;;;;5042100;28;20032;-67
2022/05/30 04:19:36;;;;;;;11.65;8.27;;;7.40;99.90;;;;;;5029602;28;20116;-68
2022/05/30 04:22:04;;;;;;;14.85;7.82;;;7.40;99.90;;;;;;5032882;28;20064;-67
2022/05/30 04:24:55;;;;;;;11.45;7.20;;;7.40;99.90;;;;;;5033255;28;20109;-67
2022/05/30 04:27:23;;;;;;;12.73;8.30;;;7.50;99.90;;;;;;5030213;28;20116;-67
2022/05/30 04:29:50;;;;;;;14.30;7.60;;;7.50;99.90;;;;;;5029280;28;20064;-67
2022/05/30 04:32:26;;;;;;;11.63;7.60;;;7.50;99.90;;;;;;5029335;28;20115;-67
2022/05/30 04:34:55;;;;;;;10.60;7.72;;;7.50;99.90;;;;;;5029113;28;20041;-67
2022/05/30 04:37:24;;;;;;;9.65;6.53;;;7.50;99.90;;;;;;5030377;28;20083;-68
2022/05/30 04:40:02;;;;;;;10.90;7.57;;;7.60;99.90;;;;;;5030925;28;20072;-67
2022/05/30 04:42:53;;;;;;;10.30;6.75;;;7.60;99.90;;;;;;5027913;28;20056;-67
2022/05/30 04:45:38;;;;;;;12.90;7.00;;;7.70;99.90;;;;;;5024801;28;20049;-67
2022/05/30 04:48:17;;;;;;;10.43;6.78;;;7.70;99.90;;;;;;5037239;28;20036;-67
2022/05/30 04:50:45;;;;;;;12.27;5.95;;;7.80;99.90;;;;;;5041008;28;20141;-67
2022/05/30 04:53:13;;;;;;;11.57;7.47;;;7.90;99.90;;;;;;5037258;28;20567;-68
2022/05/30 04:55:52;;;;;;;13.48;8.68;;;7.90;99.90;;;;;;5035444;28;20041;-68
2022/05/30 04:58:28;;;;;;;16.02;9.68;;;8.00;99.90;;;;;;5029795;28;20099;-68
2022/05/30 05:01:08;;;;;;;16.27;10.77;;;8.10;99.90;;;;;;5037154;28;20037;-67
2022/05/30 05:03:39;;;;;;;12.88;8.65;;;8.30;99.90;;;;;;5023966;28;20484;-68
2022/05/30 05:06:07;;;;;;;16.65;8.55;;;8.40;99.90;;;;;;5017639;28;20033;-67
2022/05/30 05:08:50;;;;;;;11.30;8.02;;;8.50;99.90;;;;;;5029656;28;20120;-67
2022/05/30 05:11:36;;;;;;;14.02;9.25;;;8.60;99.90;;;;;;5028834;28;20251;-67
2022/05/30 05:14:22;;;;;;;12.13;8.23;;;8.60;99.90;;;;;;5028278;28;20045;-68
2022/05/30 05:17:09;;;;;;;10.75;7.03;;;8.70;99.90;;;;;;5029904;28;20037;-68
2022/05/30 05:19:39;;;;;;;10.77;7.13;;;8.80;99.90;;;;;;5035994;28;20041;-67
2022/05/30 05:22:06;;;;;;;10.57;6.13;;;8.90;99.90;;;;;;5028120;28;20545;-68
2022/05/30 05:24:35;;;;;;;13.48;7.53;;;8.90;99.90;;;;;;5044888;28;20076;-68
2022/05/30 05:27:05;;;;;;;10.10;7.20;;;9.00;99.90;;;;;;5021452;28;20037;-66
2022/05/30 05:29:33;;;;;;;9.93;5.90;;;9.10;99.90;;;;;;5028709;28;20369;-67
2022/05/30 05:32:01;;;;;;;11.23;6.63;;;9.10;99.90;;;;;;5034662;28;20037;-67
2022/05/30 05:34:29;;;;;;;8.30;6.10;;;9.00;99.90;;;;;;5029526;28;20042;-67
2022/05/30 05:36:56;;;;;;;13.02;7.30;;;9.10;99.90;;;;;;5030170;28;20055;-67
2022/05/30 05:39:25;;;;;;;8.32;5.55;;;9.20;99.90;;;;;;5024811;28;20574;-67
2022/05/30 05:41:55;;;;;;;9.00;5.10;;;9.20;99.90;;;;;;5042041;28;20048;-67
2022/05/30 05:44:23;;;;;;;11.30;7.18;;;9.20;99.90;;;;;;5026941;28;20046;-67
2022/05/30 05:46:51;;;;;;;8.20;6.05;;;9.40;99.90;;;;;;5035047;28;20123;-68
2022/05/30 05:49:19;;;;;;;9.35;5.82;;;9.40;99.90;;;;;;5028791;28;20046;-67
2022/05/30 05:51:52;;;;;;;8.55;5.40;;;9.30;99.90;;;;;;5026481;28;20045;-67
2022/05/30 05:54:23;;;;;;;8.25;5.43;;;9.30;99.90;;;;;;5028081;28;20397;-67
2022/05/30 05:56:52;;;;;;;;;;;9.40;99.90;;;;;;5033441;28;20056;-66
2022/05/30 05:59:25;;;;;;;;;;;9.50;99.90;;;;;;5023989;28;19971;-67
2022/05/30 06:01:52;;;;;;;9.05;6.70;;;9.40;99.90;;;;;;5027663;28;19936;-67
2022/05/30 06:04:21;;;;;;;10.23;7.38;;;9.40;99.90;;;;;;5023909;28;20041;-67
2022/05/30 06:07:24;;;;;;;;;;;9.40;99.90;;;;;;5026817;28;20104;-68
2022/05/30 06:09:59;;;;;;;10.57;7.15;;;9.30;99.90;;;;;;5026287;28;19933;-67
2022/05/30 06:12:47;;;;;;;9.93;7.15;;;9.50;99.90;;;;;;5002135;28;20057;-68
2022/05/30 06:15:17;;;;;;;9.45;7.45;;;9.30;99.90;;;;;;5028378;28;20503;-68
2022/05/30 06:17:55;;;;;;;12.00;7.47;;;9.50;99.90;;;;;;5026134;28;20051;-68
2022/05/30 06:20:22;;;;;;;11.57;7.63;;;9.50;99.90;;;;;;5030728;28;20607;-67
2022/05/30 06:22:50;;;;;;;11.23;7.50;;;9.60;99.90;;;;;;5033569;28;20138;-68
2022/05/30 06:25:49;;;;;;;8.95;6.85;;;9.70;99.90;;;;;;5033282;28;20053;-68
2022/05/30 06:28:30;;;;;;;10.48;7.10;;;9.90;99.90;;;;;;5028914;28;20060;-68
2022/05/30 06:31:13;;;;;;;11.70;7.22;;;9.90;99.90;;;;;;5009598;28;20049;-68
2022/05/30 06:33:41;;;;;;;12.82;8.02;;;10.10;99.90;;;;;;5007741;28;20092;-68
2022/05/30 06:36:14;;;;;;;11.73;7.00;;;10.10;99.90;;;;;;5022142;28;20583;-68
2022/05/30 06:38:43;;;;;;;9.90;7.20;;;10.30;99.90;;;;;;5007265;28;20042;-68
2022/05/30 06:41:25;;;;;;;11.68;6.50;;;10.30;99.90;;;;;;5015095;28;20045;-68
2022/05/30 06:43:57;;;;;;;8.95;5.40;;;10.40;99.90;;;;;;5029268;28;20049;-67
2022/05/30 06:46:43;;;;;;;9.05;6.10;;;10.50;99.90;;;;;;5036831;28;20519;-68
2022/05/30 06:49:50;;;;;;;12.00;7.45;;;10.60;99.90;;;;;;5037905;28;20448;-68
2022/05/30 06:52:21;;;;;;;10.73;7.75;;;10.70;99.90;;;;;;5035509;28;20037;-68
2022/05/30 06:54:49;;;;;;;9.98;6.93;;;10.80;99.90;;;;;;5027050;28;20141;-68
2022/05/30 07:00:06;;;;;;;9.98;6.55;;;10.80;99.90;;;;;;5021000;28;20069;-67
2022/05/30 07:02:42;;;;;;;9.95;6.05;;;10.80;99.90;;;;;;5017232;28;20072;-67
2022/05/30 07:05:29;;;;;;;11.57;6.50;;;10.90;99.90;;;;;;5030896;28;20703;-68
2022/05/30 07:08:15;;;;;;;8.15;6.45;;;11.00;99.90;;;;;;5034585;28;20421;-67
2022/05/30 07:11:06;;;;;;;8.23;5.72;;;11.20;99.90;;;;;;5039459;28;20071;-67
2022/05/30 07:13:34;;;;;;;9.23;6.90;;;11.30;99.90;;;;;;5026678;28;20408;-67
2022/05/30 07:16:01;;;;;;;9.82;6.68;;;11.30;99.90;;;;;;5033542;28;20152;-67
2022/05/30 07:18:31;;;;;;;10.35;6.57;;;11.30;99.90;;;;;;5018755;28;20489;-67
2022/05/30 07:21:03;;;;;;;9.88;6.25;;;11.20;99.90;;;;;;5016894;28;20099;-67
2022/05/30 07:23:33;;;;;;;12.10;6.97;;;11.30;99.90;;;;;;5028218;28;20049;-68
2022/05/30 07:26:20;;;;;;;12.77;7.22;;;11.40;99.90;;;;;;5031151;28;20042;-67
2022/05/30 07:29:08;;;;;;;9.02;6.57;;;11.50;99.90;;;;;;5017414;28;20520;-67
2022/05/30 07:32:08;;;;;;;9.75;7.30;;;11.50;99.90;;;;;;5070577;28;20496;-67
2022/05/30 07:35:10;;;;;;;13.88;7.22;;;11.60;99.90;;;;;;5075749;28;20041;-67
2022/05/30 07:37:58;;;;;;;9.30;6.38;;;11.70;99.90;;;;;;5062272;28;20078;-69
2022/05/30 07:40:31;;;;;;;10.73;7.40;;;11.70;99.90;;;;;;5044650;28;20056;-67
2022/05/30 07:43:15;;;;;;;9.48;6.80;;;11.70;99.90;;;;;;5041489;28;20049;-65
2022/05/30 07:46:11;;;;;;;9.23;5.80;;;11.90;99.90;;;;;;5042463;28;20475;-66
2022/05/30 07:48:49;;;;;;;14.77;7.15;;;12.00;99.90;;;;;;5043382;28;20186;-65
2022/05/30 07:51:46;;;;;;;8.57;5.53;;;11.90;99.90;;;;;;5060545;28;20057;-66
2022/05/30 07:54:22;;;;;;;8.43;5.40;;;11.80;99.90;;;;;;5039230;28;20483;-65
2022/05/30 07:56:58;;;;;;;7.70;5.30;;;11.90;99.90;;;;;;5057321;28;20522;-66
2022/05/30 07:59:27;;;;;;;6.78;4.50;;;11.90;99.90;;;;;;5052785;28;20132;-66
2022/05/30 08:01:59;;;;;;;9.20;5.20;;;12.10;99.90;;;;;;5044739;28;20056;-65
2022/05/30 08:04:28;;;;;;;8.90;5.45;;;12.20;99.90;;;;;;5057187;28;20059;-65
2022/05/30 08:06:58;;;;;;;8.10;5.35;;;12.10;99.90;;;;;;5063016;28;20068;-66
2022/05/30 08:09:48;;;;;;;7.85;4.85;;;12.20;99.90;;;;;;5021559;28;20072;-65
2022/05/30 08:12:21;;;;;;;10.98;5.30;;;12.40;99.90;;;;;;5024901;28;20045;-65
2022/05/30 08:15:09;;;;;;;7.75;4.70;;;12.50;99.90;;;;;;5016479;28;20046;-66
2022/05/30 08:17:58;;;;;;;9.00;4.63;;;12.40;99.90;;;;;;5030420;28;20515;-65
2022/05/30 08:20:28;;;;;;;8.13;4.78;;;12.50;99.90;;;;;;5027831;28;20381;-65
2022/05/30 08:22:56;;;;;;;10.70;5.90;;;12.60;99.90;;;;;;5029325;28;20053;-65
2022/05/30 08:25:24;;;;;;;13.25;5.38;;;12.60;99.90;;;;;;5028509;28;20163;-66
2022/05/30 08:27:51;;;;;;;8.65;4.88;;;12.60;99.90;;;;;;5027743;28;20053;-66
2022/05/30 08:30:20;;;;;;;9.93;4.72;;;12.70;99.90;;;;;;5028696;28;20511;-66
2022/05/30 08:33:11;;;;;;;12.27;5.13;;;12.80;99.90;;;;;;5031765;28;20049;-65
2022/05/30 08:36:09;;;;;;;10.70;5.47;;;13.00;99.90;;;;;;5031487;28;20504;-66
2022/05/30 08:38:37;;;;;;;9.52;5.78;;;13.00;99.90;;;;;;5032839;28;20223;-65
2022/05/30 08:44:02;;;;;;;7.93;4.60;;;13.20;99.90;;;;;;5031318;28;20124;-66
2022/05/30 08:47:01;;;;;;;11.57;5.47;;;13.40;99.90;;;;;;5030780;28;20508;-66
2022/05/30 08:49:37;;;;;;;7.85;4.43;;;13.40;99.90;;;;;;5030021;28;20148;-65
2022/05/30 08:52:43;;;;;;;8.93;4.70;;;13.60;99.90;;;;;;5028324;28;20432;-66
2022/05/30 08:55:26;;;;;;;9.18;4.38;;;13.70;99.90;;;;;;5036821;28;20061;-66
2022/05/30 08:58:16;;;;;;;9.27;4.45;;;13.50;99.90;;;;;;5028932;28;20488;-66
2022/05/30 09:00:51;;;;;;;7.97;5.10;;;13.50;99.90;;;;;;5043080;28;20068;-66
2022/05/30 09:03:43;;;;;;;8.48;3.92;;;13.50;99.90;;;;;;5039197;28;20055;-66
2022/05/30 09:06:21;;;;;;;8.75;4.60;;;13.80;99.90;;;;;;5033784;28;20049;-65
2022/05/30 09:08:59;;;;;;;8.55;4.07;;;13.90;99.90;;;;;;5016720;28;20120;-66
2022/05/30 09:11:52;;;;;;;9.30;4.25;;;14.20;99.90;;;;;;5025335;28;20147;-65
2022/05/30 09:14:32;;;;;;;8.45;3.88;;;14.20;99.90;;;;;;5025188;28;20052;-66
2022/05/30 09:17:05;;;;;;;8.23;3.67;;;14.40;99.90;;;;;;5028475;28;20046;-66
2022/05/30 09:19:33;;;;;;;7.05;3.58;;;14.60;99.90;;;;;;5025996;28;20076;-66
2022/05/30 09:22:01;;;;;;;9.10;3.50;;;14.50;99.90;;;;;;5035358;28;20614;-66
2022/05/30 09:24:35;;;;;;;7.15;3.50;;;14.40;99.90;;;;;;5047727;28;20532;-66
2022/05/30 09:27:05;;;;;;;9.73;3.97;;;14.30;99.90;;;;;;5048695;28;20377;-66
2022/05/30 09:29:48;;;;;;;6.75;3.53;;;14.50;99.90;;;;;;5048313;28;20103;-66
2022/05/30 09:32:52;;;;;;;5.10;3.00;;;14.80;99.90;;;;;;5049812;28;20148;-66
2022/05/30 09:35:45;;;;;;;7.03;2.80;;;15.20;99.90;;;;;;5032950;28;20057;-66
2022/05/30 09:38:48;;;;;;;7.07;2.67;;;15.60;99.90;;;;;;5040638;28;20533;-66
2022/05/30 09:41:46;;;;;;;5.13;2.50;;;16.10;99.90;;;;;;5038166;28;20045;-64
2022/05/30 09:44:17;;;;;;;4.07;2.03;;;16.40;99.90;;;;;;5043417;28;20185;-66
2022/05/30 09:47:06;;;;;;;6.47;2.00;;;16.50;99.90;;;;;;5031814;28;20132;-66
2022/05/30 09:49:54;;;;;;;7.07;2.35;;;16.50;99.90;;;;;;5033427;28;20074;-65
2022/05/30 09:52:26;;;;;;;6.22;2.60;;;17.00;99.90;;;;;;5026515;28;20250;-66
2022/05/30 09:54:56;;;;;;;6.43;2.53;;;17.50;99.90;;;;;;5033773;28;20480;-67
2022/05/30 09:57:34;;;;;;;4.82;2.65;;;18.00;99.90;;;;;;5047225;28;20421;-66
2022/05/30 10:00:12;;;;;;;7.55;2.28;;;18.30;99.90;;;;;;5048165;28;20125;-65
2022/05/30 10:02:59;;;;;;;5.50;2.00;;;18.30;99.90;;;;;;5030193;28;20044;-66
2022/05/30 10:05:30;;;;;;;6.68;2.78;;;18.60;99.90;;;;;;5028564;28;20045;-66
2022/05/30 10:08:01;;;;;;;5.05;2.30;;;18.40;99.90;;;;;;5029209;28;20523;-66
2022/05/30 10:10:57;;;;;;;6.53;2.47;;;18.50;99.90;;;;;;5025412;28;20048;-66
2022/05/30 10:13:41;;;;;;;6.18;2.33;;;18.10;99.90;;;;;;5032909;28;20087;-67
2022/05/30 10:16:33;;;;;;;8.00;2.72;;;18.00;99.90;;;;;;5029854;28;20038;-67
2022/05/30 10:19:05;;;;;;;4.20;2.20;;;17.90;99.90;;;;;;5045884;28;20052;-67
2022/05/30 10:28:49;;;;;;;6.03;2.53;;;18.50;99.90;;;;;;5012348;28;20495;-67
2022/05/30 10:31:40;;;;;;;;;;;19.00;99.90;;;;;;5039151;28;20451;-67
2022/05/30 10:34:28;;;;;;;6.45;2.33;;;19.40;99.90;;;;;;5051338;28;19938;-66
2022/05/30 10:37:05;;;;;;;8.82;2.78;;;19.40;99.90;;;;;;5046499;28;20053;-67
2022/05/30 10:40:05;;;;;;;5.00;2.20;;;18.60;99.90;;;;;;5014338;28;20045;-67
2022/05/30 10:43:09;;;;;;;5.30;2.05;;;18.20;99.90;;;;;;5027210;28;20594;-66
2022/05/30 10:45:55;;;;;;;6.25;2.35;;;18.10;99.90;;;;;;4961464;28;20426;-66
2022/05/30 10:48:53;;;;;;;3.67;1.95;;;18.30;99.90;;;;;;4949302;28;20451;-67
2022/05/30 10:51:25;;;;;;;5.47;2.00;;;18.10;99.90;;;;;;4951749;28;20565;-66
2022/05/30 10:54:16;;;;;;;5.78;2.40;;;17.80;99.90;;;;;;4944031;28;20047;-66
2022/05/30 10:56:48;;;;;;;6.25;2.00;;;18.20;99.90;;;;;;4965347;28;20042;-67
2022/05/30 10:59:37;;;;;;;5.28;2.22;;;18.40;99.90;;;;;;4955331;28;20121;-67
2022/05/30 11:02:13;;;;;;;8.15;2.40;;;18.60;99.90;;;;;;4934064;28;20086;-67
2022/05/30 11:05:01;;;;;;;5.03;1.90;;;19.00;99.90;;;;;;4930198;29;20202;-67
2022/05/30 11:07:59;;;;;;;5.53;2.15;;;18.90;99.90;;;;;;4921945;29;20063;-68
2022/05/30 11:10:37;;;;;;;7.25;2.28;;;19.00;99.90;;;;;;4945447;29;20126;-67
2022/05/30 11:13:33;;;;;;;6.20;2.17;;;18.60;99.90;;;;;;4927258;29;20114;-67
2022/05/30 11:16:38;;;;;;;5.07;1.92;;;18.30;99.90;;;;;;4940776;29;20054;-67
2022/05/30 11:19:42;;;;;;;5.32;2.10;;;18.90;99.90;;;;;;4972723;28;20053;-67
2022/05/30 11:22:55;;;;;;;5.55;2.08;;;19.40;99.90;;;;;;4994565;28;20049;-67
2022/05/30 11:25:31;;;;;;;6.63;2.10;;;20.20;99.90;;;;;;5015709;28;20143;-67
2022/05/30 11:28:02;;;;;;;3.30;1.80;;;20.30;98.80;;;;;;5039457;28;20068;-66
2022/05/30 11:30:53;;;;;;;4.43;1.80;;;19.60;98.00;;;;;;5037386;28;20038;-66
2022/05/30 11:33:52;;;;;;;5.55;1.83;;;19.00;98.80;;;;;;5040774;28;20057;-67
2022/05/30 11:36:58;;;;;;;4.53;1.60;;;19.10;97.40;;;;;;5022570;28;20045;-67
2022/05/30 11:39:54;;;;;;;2.95;1.30;;;19.50;99.20;;;;;;5018876;28;20095;-67
2022/05/30 11:42:39;;;;;;;5.07;1.70;;;20.80;98.40;;;;;;5031543;28;20037;-67
2022/05/30 11:45:16;;;;;;;3.60;1.52;;;21.60;98.10;;;;;;5026334;28;20408;-67
2022/05/30 11:48:21;;;;;;;4.88;1.40;;;22.50;95.10;;;;;;5008636;28;20077;-68
2022/05/30 11:51:26;;;;;;;3.08;1.42;;;23.40;94.60;;;;;;5020613;28;20081;-67
2022/05/30 11:54:29;;;;;;;2.60;1.50;;;24.10;91.60;;;;;;5027716;28;20090;-67
2022/05/30 11:57:06;;;;;;;3.60;1.58;;;23.90;91.60;;;;;;5025209;28;20469;-67
2022/05/30 12:00:04;;;;;;;3.92;1.50;;;23.90;90.90;;;;;;5032534;28;20494;-67
2022/05/30 12:02:57;;;;;;;4.22;1.50;;;24.40;85.70;;;;;;5031737;28;20061;-67
2022/05/30 12:05:54;;;;;;;4.50;1.40;;;25.60;84.60;;;;;;5020077;28;20123;-67
2022/05/30 12:08:37;;;;;;;2.80;1.25;;;25.50;80.20;;;;;;5029128;28;20047;-67
2022/05/30 12:11:33;;;;;;;2.97;1.30;;;25.10;79.60;;;;;;5027571;28;20060;-67
2022/05/30 12:14:13;;;;;;;3.00;1.60;;;25.00;76.10;;;;;;5013367;28;20034;-67
2022/05/30 12:17:25;;;;;;;3.08;1.50;;;23.30;76.60;;;;;;5031348;28;20053;-67
2022/05/30 12:25:53;;;;;;;4.95;1.60;;;21.00;85.40;;;;;;5031588;28;20041;-69
2022/05/30 12:28:30;;;;;;;5.45;1.90;;;20.70;86.50;;;;;;5039288;28;20083;-68
2022/05/30 12:31:02;;;;;;;3.60;1.70;;;20.70;86.10;;;;;;5032188;28;20045;-66
2022/05/30 12:33:30;;;;;;;3.50;1.65;;;21.80;83.80;;;;;;5030481;28;20155;-67
2022/05/30 12:36:09;;;;;;;4.90;1.60;;;22.60;83.20;;;;;;5039908;28;20403;-67
2022/05/30 12:39:00;;;;;;;4.88;1.92;;;23.00;81.00;;;;;;5046110;28;20802;-66
2022/05/30 12:41:32;;;;;;;7.30;1.80;;;23.00;80.70;;;;;;5032857;28;20037;-67
2022/05/30 12:44:00;;;;;;;5.38;1.60;;;23.00;80.30;;;;;;5038671;28;20512;-67
2022/05/30 12:46:47;;;;;;;3.67;1.75;;;22.90;82.00;;;;;;5042963;28;20108;-67
2022/05/30 12:49:29;;;;;;;6.70;1.85;;;23.10;80.20;;;;;;5036075;28;20045;-68
2022/05/30 12:52:15;;;;;;;3.25;1.33;;;22.90;82.00;;;;;;5038030;28;20053;-67
2022/05/30 12:54:57;;;;;;;3.72;1.90;;;22.80;81.60;;;;;;5027510;28;20471;-68
2022/05/30 12:57:43;;;;;;;3.22;1.48;;;23.10;81.00;;;;;;5030349;28;20037;-68
2022/05/30 13:00:40;;;;;;;3.38;1.50;;;23.80;79.20;;;;;;5040301;28;20114;-68
2022/05/30 13:03:33;;;;;;;4.00;1.55;;;25.20;78.00;;;;;;5040274;28;20415;-67
2022/05/30 13:06:13;;;;;;;4.25;1.75;;;25.60;76.00;;;;;;5045859;28;20047;-67
2022/05/30 13:08:56;;;;;;;3.60;1.50;;;25.10;76.00;;;;;;5018360;28;20142;-67
2022/05/30 13:11:36;;;;;;;4.13;1.38;;;24.70;74.30;;;;;;5040949;28;20049;-68
2022/05/30 13:14:36;;;;;;;3.10;1.40;;;24.40;75.80;;;;;;5038747;28;20069;-68
2022/05/30 13:17:23;;;;;;;2.80;1.40;;;24.40;76.80;;;;;;5044720;28;20551;-67
2022/05/30 13:20:12;;;;;;;3.63;1.38;;;25.40;75.10;;;;;;5041923;28;20139;-67
2022/05/30 13:22:45;;;;;;;3.35;1.30;;;26.60;73.70;;;;;;5044108;28;20491;-68
2022/05/30 13:25:18;;;;;;;5.10;1.90;;;27.50;71.50;;;;;;5051797;28;20068;-68
2022/05/30 13:27:47;;;;;;;3.35;1.40;;;27.80;70.80;;;;;;5047546;28;20068;-68
2022/05/30 13:30:21;;;;;;;4.15;1.30;;;26.00;69.70;;;;;;5027965;28;20060;-68
2022/05/30 13:32:50;;;;;;;4.40;1.60;;;24.70;71.60;;;;;;5050027;28;20470;-67
2022/05/30 13:35:19;;;;;;;4.93;1.80;;;23.80;73.70;;;;;;5051986;28;20040;-68
2022/05/30 13:37:54;;;;;;;2.40;1.40;;;23.50;74.60;;;;;;5047912;28;20057;-68
2022/05/30 13:40:25;;;;;;;5.15;1.65;;;23.00;74.70;;;;;;5046581;28;20620;-67
2022/05/30 13:42:58;;;;;;;4.50;1.45;;;23.10;75.60;;;;;;5059288;28;20388;-68
2022/05/30 13:45:46;;;;;;;5.13;1.60;;;22.90;75.10;;;;;;5061872;28;20133;-67
2022/05/30 13:48:18;;;;;;;4.97;1.50;;;22.60;75.30;;;;;;5063424;28;20134;-67
2022/05/30 13:51:01;;;;;;;3.95;1.63;;;22.40;75.20;;;;;;5056967;28;20052;-68
2022/05/30 13:53:46;;;;;;;3.03;1.50;;;22.20;77.00;;;;;;5050372;28;20060;-68
2022/05/30 13:56:22;;;;;;;3.03;1.50;;;22.30;77.00;;;;;;5027865;28;20566;-68
2022/05/30 13:58:54;;;;;;;5.10;1.50;;;22.10;77.20;;;;;;5028627;28;20041;-68
2022/05/30 14:01:24;;;;;;;2.38;1.50;;;22.00;77.30;;;;;;5036549;28;20727;-68
2022/05/30 14:04:02;;;;;;;4.50;1.52;;;22.30;77.40;;;;;;5029502;28;20041;-67
2022/05/30 14:06:43;;;;;;;2.05;1.30;;;21.90;77.60;;;;;;5031376;28;20103;-68
2022/05/30 14:09:14;;;;;;;3.35;1.45;;;22.00;76.80;;;;;;5024661;28;20636;-68
2022/05/30 14:11:49;;;;;;;4.45;1.58;;;21.90;78.00;;;;;;5027089;28;20055;-67